createdAt,value
2023-01-27T00:08:32.755Z,101256.45
2023-01-27T00:11:19.719Z,101253.98
2023-01-27T00:13:48.463Z,101254.98
2023-01-27T00:16:16.864Z,101257.55
2023-01-27T00:18:45.100Z,101256.80
2023-01-27T00:21:31.581Z,101256.02
2023-01-27T00:24:18.883Z,101256.08
2023-01-27T00:26:47.146Z,101252.45
2023-01-27T00:29:15.468Z,101251.23
2023-01-27T00:32:02.293Z,101246.48
2023-01-27T00:34:31.283Z,101239.88
2023-01-27T00:36:59.719Z,101239.54
2023-01-27T00:39:27.954Z,101243.31
2023-01-27T00:41:56.347Z,101242.27
2023-01-27T00:44:24.560Z,101243.52
2023-01-27T00:46:54.720Z,101237.30
2023-01-27T00:49:23.086Z,101241.45
2023-01-27T00:51:51.211Z,101235.38
2023-01-27T00:54:19.481Z,101231.80
2023-01-27T00:56:47.760Z,101229.36
2023-01-27T00:59:15.998Z,101232.50
2023-01-27T01:01:44.693Z,101230.77
2023-01-27T01:04:13.641Z,101226.25
2023-01-27T01:06:42.061Z,101222.48
2023-01-27T01:09:11.490Z,101228.96
2023-01-27T01:11:39.651Z,101228.52
2023-01-27T01:14:08.088Z,101224.83
2023-01-27T01:16:37.191Z,101223.48
2023-01-27T01:19:05.620Z,101220.92
2023-01-27T01:21:33.981Z,101218.62
2023-01-27T01:24:02.339Z,101219.05
2023-01-27T01:26:31.072Z,101215.30
2023-01-27T01:28:59.265Z,101211.19
2023-01-27T01:31:31.911Z,101212.19
2023-01-27T01:34:00.380Z,101205.89
2023-01-27T01:36:28.858Z,101203.38
2023-01-27T01:38:57.833Z,101201.48
2023-01-27T01:41:26.406Z,101200.70
2023-01-27T01:43:54.897Z,101198.79
2023-01-27T01:46:23.156Z,101202.68
2023-01-27T01:48:56.254Z,101203.66
2023-01-27T01:51:38.121Z,101202.52
2023-01-27T01:54:18.357Z,101201.52
2023-01-27T01:56:58.359Z,101198.13
2023-01-27T01:59:47.414Z,101192.28
2023-01-27T02:02:19.116Z,101196.05
2023-01-27T02:04:56.093Z,101184.54
2023-01-27T02:07:58.154Z,101182.52
2023-01-27T02:10:26.856Z,101178.41
2023-01-27T02:12:55.141Z,101179.19
2023-01-27T02:15:23.376Z,101181.52
2023-01-27T02:17:53.746Z,101180.98
2023-01-27T02:20:29.806Z,101180.16
2023-01-27T02:23:35.938Z,101180.67
2023-01-27T02:26:10.037Z,101177.98
2023-01-27T02:28:38.230Z,101181.11
2023-01-27T02:31:08.393Z,101182.03
2023-01-27T02:33:37.656Z,101180.52
2023-01-27T02:36:12.349Z,101183.69
2023-01-27T02:38:43.200Z,101185.42
2023-01-27T02:41:37.853Z,101185.59
2023-01-27T02:44:06.685Z,101186.83
2023-01-27T02:46:35.178Z,101185.73
2023-01-27T02:49:03.884Z,101181.47
2023-01-27T02:51:32.630Z,101183.63
2023-01-27T02:54:01.086Z,101187.80
2023-01-27T02:56:32.135Z,101186.85
2023-01-27T02:59:02.830Z,101187.20
2023-01-27T03:01:35.412Z,101188.90
2023-01-27T03:04:03.938Z,101192.13
2023-01-27T03:06:34.099Z,101186.09
2023-01-27T03:09:02.348Z,101185.86
2023-01-27T03:11:49.228Z,101189.44
2023-01-27T03:14:18.381Z,101187.52
2023-01-27T03:17:07.296Z,101186.32
2023-01-27T03:19:36.625Z,101188.22
2023-01-27T03:22:04.979Z,101181.89
2023-01-27T03:24:39.381Z,101186.11
2023-01-27T03:27:08.321Z,101183.27
2023-01-27T03:29:56.552Z,101183.19
2023-01-27T03:32:28.583Z,101183.00
2023-01-27T03:35:19.233Z,101181.42
2023-01-27T03:38:07.013Z,101168.27
2023-01-27T03:40:54.531Z,101170.23
2023-01-27T03:43:41.739Z,101169.63
2023-01-27T03:46:19.697Z,101167.13
2023-01-27T03:48:50.481Z,101164.38
2023-01-27T03:51:20.841Z,101162.70
2023-01-27T03:53:49.210Z,101160.46
2023-01-27T03:56:18.931Z,101160.86
2023-01-27T03:58:48.404Z,101161.40
2023-01-27T04:01:21.388Z,101154.10
2023-01-27T07:51:59.584Z,101194.05
2023-01-27T07:54:27.863Z,101185.91
2023-01-27T07:56:56.241Z,101183.02
2023-01-27T07:59:25.200Z,101177.41
2023-01-27T08:01:53.328Z,101176.58
2023-01-27T08:04:21.548Z,101176.45
2023-01-27T08:06:51.690Z,101174.63
2023-01-27T08:09:19.883Z,101174.58
2023-01-27T08:11:48.469Z,101172.86
2023-01-27T08:14:16.767Z,101171.23
2023-01-27T08:16:44.915Z,101174.00
2023-01-27T08:19:13.186Z,101169.87
2023-01-27T08:21:42.807Z,101166.42
2023-01-27T08:24:13.155Z,101162.65
2023-01-27T08:26:41.351Z,101159.63
2023-01-27T08:29:09.701Z,101154.64
2023-01-27T08:31:38.001Z,101149.91
2023-01-27T08:34:06.480Z,101148.98
2023-01-27T08:36:35.589Z,101146.70
2023-01-27T08:39:03.829Z,101144.41
2023-01-27T08:41:32.289Z,101151.77
2023-01-27T08:44:00.456Z,101155.56
2023-01-27T08:46:29.870Z,101161.13
2023-01-27T08:48:58.476Z,101169.30
2023-01-27T08:51:26.600Z,101172.11
2023-01-27T08:53:54.705Z,101168.27
2023-01-27T08:56:23.217Z,101164.61
2023-01-27T08:58:54.109Z,101157.88
2023-01-27T09:01:22.347Z,101153.56
2023-01-27T09:03:50.505Z,101148.26
2023-01-27T09:06:19.339Z,101149.61
2023-01-27T09:09:09.984Z,101148.04
2023-01-27T09:11:44.393Z,101153.57
2023-01-27T09:14:14.152Z,101150.91
2023-01-27T09:16:42.691Z,101151.30
2023-01-27T09:19:10.841Z,101157.05
2023-01-27T09:21:38.944Z,101159.64
2023-01-27T09:24:07.518Z,101158.28
2023-01-27T09:26:36.140Z,101153.81
2023-01-27T09:29:04.635Z,101153.87
2023-01-27T09:31:33.742Z,101152.19
2023-01-27T09:34:01.934Z,101151.82
2023-01-27T09:36:30.386Z,101152.13
2023-01-27T09:39:01.630Z,101147.52
2023-01-27T09:42:26.845Z,101141.85
2023-01-27T09:44:58.914Z,101141.88
2023-01-27T09:47:28.799Z,101142.48
2023-01-27T09:50:24.046Z,101140.33
2023-01-27T09:53:14.163Z,101144.11
2023-01-27T09:55:51.357Z,101141.25
2023-01-27T09:58:38.478Z,101143.02
2023-01-27T10:01:32.672Z,101146.31
2023-01-27T10:04:13.683Z,101143.17
2023-01-27T10:06:45.098Z,101142.06
2023-01-27T10:09:52.140Z,101140.58
2023-01-27T10:12:48.309Z,101136.59
2023-01-27T10:15:40.140Z,101139.13
2023-01-27T10:18:39.241Z,101139.96
2023-01-27T10:21:37.221Z,101131.63
2023-01-27T10:24:36.524Z,101122.59
2023-01-27T10:27:37.480Z,101120.55
2023-01-27T10:30:08.771Z,101130.77
2023-01-27T10:33:19.537Z,101133.23
2023-01-27T10:35:57.685Z,101140.69
2023-01-27T10:38:41.454Z,101137.81
2023-01-27T10:41:15.975Z,101133.86
2023-01-27T10:44:04.118Z,101135.71
2023-01-27T10:47:09.774Z,101136.77
2023-01-27T10:49:44.024Z,101126.98
2023-01-27T10:52:22.600Z,101121.17
2023-01-27T10:54:58.431Z,101118.92
2023-01-27T10:57:33.933Z,101116.31
2023-01-27T11:00:37.863Z,101118.46
2023-01-27T11:03:32.566Z,101115.44
2023-01-27T11:06:04.790Z,101113.73
2023-01-27T11:08:36.119Z,101109.54
2023-01-27T11:11:28.523Z,101115.21
2023-01-27T11:14:38.889Z,101108.39
2023-01-27T11:17:16.953Z,101102.14
2023-01-27T11:19:51.370Z,101105.37
2023-01-27T11:22:22.309Z,101106.82
2023-01-27T11:25:18.401Z,101100.04
2023-01-27T11:28:20.346Z,101093.98
2023-01-27T11:30:57.741Z,101089.39
2023-01-27T11:33:30.846Z,101086.04
2023-01-27T11:36:00.047Z,101084.56
2023-01-27T11:38:32.042Z,101086.84
2023-01-27T11:41:01.380Z,101094.52
2023-01-27T11:43:30.320Z,101089.76
2023-01-27T11:46:02.960Z,101097.63
2023-01-27T11:48:42.647Z,101102.80
2023-01-27T11:51:23.099Z,101096.52
2023-01-27T11:54:02.057Z,101091.84
2023-01-27T11:56:30.553Z,101097.17
2023-01-27T11:59:04.376Z,101101.11
2023-01-27T12:01:57.160Z,101103.95
2023-01-27T12:04:32.155Z,101105.12
2023-01-27T12:07:04.125Z,101097.59
2023-01-27T12:09:36.048Z,101088.85
2023-01-27T12:12:15.946Z,101084.95
2023-01-27T15:52:36.898Z,101105.06
2023-01-27T15:55:05.525Z,101104.62
2023-01-27T15:57:36.342Z,101103.61
2023-01-27T16:00:22.762Z,101098.94
2023-01-27T16:02:54.558Z,101096.32
2023-01-27T16:05:28.812Z,101098.09
2023-01-27T16:08:01.171Z,101100.91
2023-01-27T16:10:34.775Z,101106.09
2023-01-27T16:13:24.224Z,101101.86
2023-01-27T16:16:23.601Z,101095.67
2023-01-27T16:18:54.238Z,101093.79
2023-01-27T16:21:32.877Z,101095.91
2023-01-27T16:24:03.210Z,101099.39
2023-01-27T16:26:46.134Z,101104.16
2023-01-27T16:29:53.460Z,101101.05
2023-01-27T16:32:22.793Z,101100.62
2023-01-27T16:34:54.145Z,101097.87
2023-01-27T16:38:01.323Z,101100.48
2023-01-27T16:40:29.959Z,101093.74
2023-01-27T16:43:14.811Z,101094.46
2023-01-27T16:45:49.343Z,101098.46
2023-01-27T16:48:39.229Z,101099.11
2023-01-27T16:51:17.302Z,101099.25
2023-01-27T16:53:49.343Z,101097.61
2023-01-27T16:56:22.026Z,101100.06
2023-01-27T16:58:52.168Z,101098.33
2023-01-27T17:01:23.646Z,101096.88
2023-01-27T17:03:54.527Z,101098.98
2023-01-27T17:06:23.035Z,101100.73
2023-01-27T17:08:51.525Z,101098.84
2023-01-27T17:11:31.258Z,101094.48
2023-01-27T17:14:02.600Z,101097.52
2023-01-27T17:16:42.467Z,101102.44
2023-01-27T17:19:16.748Z,101101.26
2023-01-27T17:21:50.716Z,101103.30
2023-01-27T17:24:32.076Z,101103.98
2023-01-27T17:27:03.225Z,101096.79
2023-01-27T17:29:37.613Z,101099.81
2023-01-27T17:32:26.049Z,101100.34
2023-01-27T17:34:56.124Z,101100.42
2023-01-27T17:37:24.601Z,101098.13
2023-01-27T17:39:54.976Z,101094.81
2023-01-27T17:42:25.087Z,101100.59
2023-01-27T17:44:53.739Z,101105.74
2023-01-27T17:47:22.347Z,101102.24
2023-01-27T17:49:51.164Z,101100.56
2023-01-27T17:52:22.247Z,101099.02
2023-01-27T17:54:51.667Z,101100.09
2023-01-27T17:57:27.437Z,101100.56
2023-01-27T18:00:04.586Z,101101.71
2023-01-27T18:02:46.158Z,101102.12
2023-01-27T18:05:20.580Z,101102.33
2023-01-27T18:07:49.431Z,101103.53
2023-01-27T18:10:24.043Z,101108.64
2023-01-27T18:12:53.098Z,101111.83
2023-01-27T18:15:39.650Z,101108.93
2023-01-27T18:18:25.670Z,101110.41
2023-01-27T18:21:07.159Z,101113.89
2023-01-27T18:23:48.886Z,101116.20
2023-01-27T18:26:44.110Z,101119.08
2023-01-27T18:29:33.871Z,101122.48
2023-01-27T18:32:18.941Z,101131.23
2023-01-27T18:34:55.625Z,101127.78
2023-01-27T18:37:31.901Z,101127.88
2023-01-27T18:40:01.638Z,101128.26
2023-01-27T18:42:31.392Z,101125.69
2023-01-27T18:44:59.727Z,101121.25
2023-01-27T18:47:34.912Z,101120.13
2023-01-27T18:50:17.191Z,101122.05
2023-01-27T18:52:45.988Z,101119.80
2023-01-27T18:55:24.871Z,101118.18
2023-01-27T18:57:55.100Z,101117.77
2023-01-27T19:00:28.621Z,101118.00
2023-01-27T19:02:59.384Z,101122.67
2023-01-27T19:05:36.825Z,101124.06
2023-01-27T19:08:05.473Z,101120.92
2023-01-27T19:10:34.834Z,101123.85
2023-01-27T19:13:03.971Z,101122.79
2023-01-27T19:15:38.648Z,101125.83
2023-01-27T19:18:19.551Z,101120.40
2023-01-27T19:20:47.941Z,101113.72
2023-01-27T19:23:18.328Z,101112.21
2023-01-27T19:25:49.681Z,101110.76
2023-01-27T19:28:30.997Z,101109.44
2023-01-27T19:31:02.431Z,101106.96
2023-01-27T19:33:33.975Z,101103.31
2023-01-27T19:36:21.027Z,101109.48
2023-01-27T19:39:01.622Z,101108.94
2023-01-27T19:41:30.339Z,101108.59
2023-01-27T19:43:58.681Z,101108.77
2023-01-27T19:46:27.235Z,101107.71
2023-01-27T19:48:55.986Z,101103.95
2023-01-27T19:51:25.007Z,101106.09
2023-01-27T19:53:53.983Z,101108.18
2023-01-27T20:09:04.655Z,101103.42
2023-01-27T20:11:35.278Z,101099.40
2023-01-27T20:14:04.000Z,101098.34
2023-01-27T20:16:31.189Z,101099.63
2023-01-27T20:18:59.692Z,101097.65
2023-01-27T20:21:27.362Z,101099.91
2023-01-27T20:23:54.627Z,101095.48
2023-01-27T20:26:22.626Z,101090.86
2023-01-27T20:28:50.397Z,101092.13
2023-01-27T20:31:19.785Z,101093.73
2023-01-27T20:33:49.834Z,101090.39
2023-01-27T20:36:19.392Z,101091.39
2023-01-27T20:38:46.821Z,101089.83
2023-01-27T20:41:15.834Z,101093.41
2023-01-27T20:43:43.095Z,101093.35
2023-01-27T20:46:12.205Z,101094.91
2023-01-27T20:48:39.291Z,101090.30
2023-01-27T20:51:12.144Z,101094.02
2023-01-27T20:53:44.809Z,101092.72
2023-01-27T20:56:16.459Z,101089.85
2023-01-27T20:58:43.482Z,101085.69
2023-01-27T21:01:15.295Z,101083.98
2023-01-27T21:03:42.231Z,101082.85
2023-01-27T21:06:10.345Z,101082.86
2023-01-27T21:08:38.119Z,101078.55
2023-01-27T21:11:11.435Z,101084.70
2023-01-27T21:13:39.188Z,101081.81
2023-01-27T21:16:06.280Z,101081.08
2023-01-27T21:18:33.323Z,101079.69
2023-01-27T21:21:03.738Z,101083.27
2023-01-27T21:23:32.540Z,101081.92
2023-01-27T21:26:05.608Z,101086.25
2023-01-27T21:28:33.683Z,101083.29
2023-01-27T21:31:08.069Z,101083.35
2023-01-27T21:33:37.939Z,101081.92
2023-01-27T21:36:10.865Z,101076.77
2023-01-27T21:38:38.479Z,101073.63
2023-01-27T21:41:06.964Z,101072.99
2023-01-27T21:43:54.264Z,101069.13
2023-01-27T21:46:21.300Z,101065.08
2023-01-27T21:48:48.470Z,101061.55
2023-01-27T21:51:15.406Z,101059.98
2023-01-27T21:53:42.327Z,101058.36
2023-01-27T21:56:10.000Z,101053.90
2023-01-27T21:58:36.800Z,101058.35
2023-01-27T22:01:09.199Z,101055.39
2023-01-27T22:03:37.344Z,101050.23
2023-01-27T22:06:09.361Z,101047.83
2023-01-27T22:08:39.064Z,101042.71
2023-01-27T22:11:07.609Z,101034.95
2023-01-27T22:13:34.976Z,101038.74
2023-01-27T22:16:02.025Z,101037.14
2023-01-27T22:18:29.524Z,101036.55
2023-01-27T22:20:56.478Z,101033.86
2023-01-27T22:23:24.195Z,101028.98
2023-01-27T22:25:51.538Z,101028.13
2023-01-27T22:28:23.587Z,101028.88
2023-01-27T22:30:50.513Z,101027.28
2023-01-27T22:33:17.757Z,101031.34
2023-01-27T22:35:44.681Z,101032.12
2023-01-27T22:38:11.676Z,101029.27
2023-01-27T22:40:42.020Z,101031.48
2023-01-27T22:43:10.074Z,101026.66
2023-01-27T22:45:38.441Z,101032.25
2023-01-27T22:48:05.992Z,101028.89
2023-01-27T22:50:33.534Z,101029.98
2023-01-27T22:53:00.720Z,101024.44
2023-01-27T22:55:27.752Z,101021.13
2023-01-27T22:57:54.972Z,101017.32
2023-01-27T23:00:21.977Z,101018.95
2023-01-27T23:02:48.797Z,101017.30
2023-01-27T23:05:16.042Z,101011.23
2023-01-27T23:07:43.101Z,101014.13
2023-01-27T23:10:10.968Z,101017.70
2023-01-27T23:12:38.361Z,101016.55
2023-01-27T23:15:06.075Z,101019.33
2023-01-27T23:17:35.560Z,101019.27
2023-01-27T23:20:05.016Z,101019.67
2023-01-27T23:22:32.593Z,101016.30
2023-01-27T23:24:59.807Z,101014.64
2023-01-27T23:27:28.098Z,101017.08
2023-01-27T23:29:54.945Z,101016.37
2023-01-27T23:32:22.082Z,101014.17
2023-01-27T23:34:49.790Z,101007.94
2023-01-27T23:37:16.779Z,101006.23
2023-01-27T23:39:47.995Z,101006.28
2023-01-27T23:42:16.129Z,101002.55
2023-01-27T23:44:43.138Z,101001.75
2023-01-27T23:47:11.008Z,101004.77
2023-01-27T23:49:38.581Z,101006.10
2023-01-27T23:52:05.451Z,101009.34
2023-01-27T23:54:32.453Z,101008.32
2023-01-27T23:56:59.342Z,101006.25
2023-01-27T23:59:26.117Z,101009.07
